Time;durP1;ratioP1;P1;durP2;ratioP2;P2;SDS_P1;SDS_P2;PMS_P1;PMS_P2;Temp;Humidity;BMP_temperature;BMP_pressure;BME280_temperature;BME280_humidity;BME280_pressure;Samples;Min_cycle;Max_cycle;Signal;HPM_P1;HPM_P2
2022/06/21 00:02:17;;;;;;;2.75;1.85;;;18.30;43.60;;;;;;5072254;28;20771;-46
2022/06/21 00:04:44;;;;;;;6.70;2.22;;;18.20;43.40;;;;;;5072535;28;20184;-46
2022/06/21 00:07:15;;;;;;;6.78;2.38;;;18.20;43.50;;;;;;5072539;28;20218;-45
2022/06/21 00:09:41;;;;;;;3.17;1.83;;;18.20;43.60;;;;;;5073455;28;20168;-46
2022/06/21 00:12:11;;;;;;;3.10;2.10;;;18.20;43.60;;;;;;5076277;28;20181;-46
2022/06/21 00:14:38;;;;;;;3.25;2.15;;;18.10;43.60;;;;;;5076247;28;20191;-46
2022/06/21 00:17:04;;;;;;;6.63;2.80;;;18.10;43.50;;;;;;5076266;28;20204;-46
2022/06/21 00:19:30;;;;;;;2.35;1.60;;;18.10;43.50;;;;;;5075913;28;20188;-46
2022/06/21 00:21:55;;;;;;;4.93;2.60;;;18.10;43.60;;;;;;5075988;28;20212;-46
2022/06/21 00:24:21;;;;;;;4.57;2.10;;;18.10;43.80;;;;;;5076313;28;20407;-46
2022/06/21 00:26:47;;;;;;;2.40;2.00;;;18.10;43.70;;;;;;5075893;28;20871;-46
2022/06/21 00:29:13;;;;;;;2.73;2.30;;;18.10;43.70;;;;;;5076397;28;20204;-46
2022/06/21 00:31:45;;;;;;;2.42;2.00;;;18.00;43.60;;;;;;5076014;28;20197;-46
2022/06/21 00:34:20;;;;;;;2.40;1.80;;;18.00;43.60;;;;;;5076386;28;20183;-46
2022/06/21 00:36:48;;;;;;;7.60;2.47;;;18.00;43.70;;;;;;5075557;28;20218;-46
2022/06/21 00:39:16;;;;;;;4.78;1.88;;;18.00;43.70;;;;;;5075925;28;20236;-45
2022/06/21 00:41:44;;;;;;;2.55;1.73;;;17.90;43.70;;;;;;5076286;28;20199;-46
2022/06/21 00:44:38;;;;;;;2.45;1.50;;;17.90;43.80;;;;;;5075349;28;20165;-46
2022/06/21 00:47:13;;;;;;;6.75;2.35;;;17.90;43.70;;;;;;5075357;28;20259;-46
2022/06/21 00:49:54;;;;;;;3.15;2.10;;;17.90;43.60;;;;;;5075642;28;20178;-45
2022/06/21 00:52:58;;;;;;;2.30;1.92;;;17.90;43.50;;;;;;5075000;28;20161;-46
2022/06/21 00:55:44;;;;;;;4.25;2.33;;;17.80;43.50;;;;;;5032790;28;20297;-46
2022/06/21 00:58:13;;;;;;;3.58;2.47;;;17.80;43.40;;;;;;5032911;28;20202;-46
2022/06/21 01:01:04;;;;;;;2.70;2.00;;;17.70;43.70;;;;;;5033041;28;20236;-45
2022/06/21 01:03:43;;;;;;;5.78;2.55;;;17.70;43.60;;;;;;5033443;28;20286;-46
2022/06/21 01:06:15;;;;;;;3.85;1.60;;;17.70;43.70;;;;;;5032665;28;20158;-46
2022/06/21 01:08:47;;;;;;;2.95;2.30;;;17.70;43.80;;;;;;5016409;28;20189;-46
2022/06/21 01:11:19;;;;;;;3.00;2.53;;;17.60;43.50;;;;;;5032630;28;20262;-45
2022/06/21 01:13:49;;;;;;;4.70;2.20;;;17.60;43.70;;;;;;5032818;28;20166;-45
2022/06/21 01:16:15;;;;;;;6.28;2.70;;;17.60;43.80;;;;;;5032317;28;20254;-46
2022/06/21 01:18:43;;;;;;;2.95;1.95;;;17.50;43.70;;;;;;5032578;28;20219;-45
2022/06/21 01:21:13;;;;;;;3.17;2.65;;;17.50;43.70;;;;;;5031612;28;20220;-46
2022/06/21 01:23:50;;;;;;;4.60;2.63;;;17.50;44.00;;;;;;5032583;28;20236;-46
2022/06/21 01:26:41;;;;;;;6.15;2.78;;;17.50;43.90;;;;;;5032200;28;20264;-45
2022/06/21 01:29:12;;;;;;;3.28;2.22;;;17.50;43.80;;;;;;5048957;28;20187;-46
2022/06/21 01:31:38;;;;;;;4.25;2.35;;;17.50;43.90;;;;;;5074667;28;20196;-45
2022/06/21 01:34:12;;;;;;;2.92;1.98;;;17.40;43.80;;;;;;5074467;28;20267;-46
2022/06/21 01:36:38;;;;;;;3.15;1.98;;;17.40;43.70;;;;;;5074176;28;20251;-46
2022/06/21 01:39:08;;;;;;;4.50;2.38;;;17.40;43.60;;;;;;5074259;28;20180;-45
2022/06/21 01:41:43;;;;;;;3.15;2.10;;;17.40;43.60;;;;;;5074367;28;20202;-45
2022/06/21 01:44:19;;;;;;;3.47;2.35;;;17.40;43.70;;;;;;5074225;28;20580;-45
2022/06/21 01:46:45;;;;;;;2.55;1.92;;;17.30;43.80;;;;;;5074140;28;20584;-46
2022/06/21 01:49:16;;;;;;;3.03;2.08;;;17.30;43.70;;;;;;5074192;28;20180;-46
2022/06/21 01:52:04;;;;;;;6.30;2.30;;;17.30;43.70;;;;;;5074083;28;20675;-46
2022/06/21 01:54:36;;;;;;;3.80;1.63;;;17.30;43.70;;;;;;5073731;28;20191;-44
2022/06/21 01:57:02;;;;;;;2.80;2.50;;;17.30;43.70;;;;;;5073504;28;20283;-46
2022/06/21 01:59:36;;;;;;;2.33;1.67;;;17.20;43.60;;;;;;5073753;28;20255;-46
2022/06/21 02:02:08;;;;;;;5.85;2.38;;;17.20;43.70;;;;;;5073725;28;20436;-46
2022/06/21 02:04:59;;;;;;;4.78;3.38;;;17.30;43.70;;;;;;5073657;28;20169;-46
2022/06/21 02:07:31;;;;;;;3.35;2.08;;;17.20;43.80;;;;;;5073496;28;20176;-46
2022/06/21 02:10:24;;;;;;;3.10;2.40;;;17.20;43.80;;;;;;5073732;28;20217;-46
2022/06/21 02:12:54;;;;;;;4.25;2.22;;;17.20;43.80;;;;;;5073627;28;20221;-46
2022/06/21 02:15:36;;;;;;;2.70;2.17;;;17.20;43.80;;;;;;5073366;28;20172;-46
2022/06/21 02:18:06;;;;;;;2.92;2.17;;;17.10;43.80;;;;;;5073553;28;20290;-46
2022/06/21 02:20:36;;;;;;;3.88;2.90;;;17.10;43.90;;;;;;5073141;28;20684;-45
2022/06/21 02:23:02;;;;;;;5.05;2.33;;;17.10;43.80;;;;;;5073103;28;20180;-46
2022/06/21 02:25:28;;;;;;;2.78;1.88;;;17.10;43.80;;;;;;5073081;28;20687;-46
2022/06/21 02:28:05;;;;;;;4.77;2.50;;;17.00;43.60;;;;;;5073039;28;20279;-46
2022/06/21 02:30:31;;;;;;;3.05;2.20;;;17.10;43.70;;;;;;5072972;28;20441;-46
2022/06/21 02:33:00;;;;;;;3.97;2.30;;;17.10;43.70;;;;;;5072385;28;20177;-45
2022/06/21 02:35:30;;;;;;;10.20;3.75;;;17.10;43.80;;;;;;5072869;28;20405;-45
2022/06/21 02:38:00;;;;;;;3.40;2.55;;;17.00;43.60;;;;;;5072874;28;20549;-45
2022/06/21 02:40:34;;;;;;;3.05;2.10;;;17.00;43.60;;;;;;5072664;28;20270;-46
2022/06/21 02:43:09;;;;;;;3.90;1.83;;;17.00;43.60;;;;;;5072819;28;20322;-46
2022/06/21 02:46:10;;;;;;;3.42;2.50;;;17.00;43.50;;;;;;5072561;28;20163;-45
2022/06/21 02:48:42;;;;;;;4.03;3.13;;;17.00;43.40;;;;;;5072338;28;20179;-45
2022/06/21 02:51:20;;;;;;;2.35;2.15;;;16.90;43.40;;;;;;5072515;28;20192;-45
2022/06/21 02:53:51;;;;;;;4.10;2.15;;;16.90;43.50;;;;;;5072503;28;20656;-46
2022/06/21 02:56:50;;;;;;;3.60;2.38;;;16.90;43.40;;;;;;5072709;28;20532;-45
2022/06/21 02:59:16;;;;;;;3.20;2.70;;;16.90;43.50;;;;;;5064952;28;20195;-45
2022/06/21 03:01:45;;;;;;;4.55;1.55;;;16.90;43.60;;;;;;5072275;28;20196;-45
2022/06/21 03:04:20;;;;;;;3.85;2.17;;;16.90;43.40;;;;;;5072810;28;20164;-45
2022/06/21 03:06:48;;;;;;;2.97;2.00;;;16.90;43.40;;;;;;5072202;28;20540;-45
2022/06/21 03:09:17;;;;;;;4.88;2.65;;;16.90;43.30;;;;;;5072731;28;20184;-45
2022/06/21 03:11:46;;;;;;;3.55;2.92;;;16.90;43.30;;;;;;5072310;28;20668;-46
2022/06/21 03:14:16;;;;;;;3.85;2.42;;;16.80;43.20;;;;;;5072309;28;20216;-45
2022/06/21 03:16:45;;;;;;;5.45;2.08;;;16.80;43.30;;;;;;5072224;28;20314;-45
2022/06/21 03:19:23;;;;;;;8.40;2.60;;;16.80;43.30;;;;;;5072574;28;20172;-46
2022/06/21 03:21:49;;;;;;;2.20;1.40;;;16.90;43.40;;;;;;5072117;28;20204;-45
2022/06/21 03:24:20;;;;;;;2.50;2.10;;;16.90;43.30;;;;;;5072245;28;20245;-46
2022/06/21 03:26:59;;;;;;;3.03;2.60;;;16.90;43.30;;;;;;5072552;28;20172;-46
2022/06/21 03:29:25;;;;;;;2.47;1.80;;;16.90;43.30;;;;;;5072560;28;20199;-46
2022/06/21 03:31:53;;;;;;;2.45;2.10;;;16.90;43.30;;;;;;5072379;28;20175;-46
2022/06/21 03:34:22;;;;;;;3.10;1.98;;;16.90;43.30;;;;;;5072203;28;20238;-45
2022/06/21 03:36:49;;;;;;;3.58;1.85;;;16.90;43.40;;;;;;5072395;28;20626;-45
2022/06/21 03:41:42;;;;;;;9.65;2.60;;;16.90;43.50;;;;;;5072136;28;20184;-45
2022/06/21 03:42:14;;;;;;;3.72;2.42;;;17.00;43.60;;;;;;5072045;28;20517;-46
2022/06/21 03:44:47;;;;;;;3.00;2.35;;;17.00;43.80;;;;;;5073895;28;20169;-46
2022/06/21 03:47:21;;;;;;;4.40;2.75;;;17.00;43.80;;;;;;5076449;28;20176;-46
2022/06/21 03:50:03;;;;;;;5.35;2.88;;;17.10;44.10;;;;;;5076538;28;20204;-45
2022/06/21 03:52:44;;;;;;;4.80;2.33;;;17.20;44.10;;;;;;5076192;28;20184;-46
2022/06/21 03:55:37;;;;;;;2.83;2.03;;;17.20;44.10;;;;;;5076521;28;20180;-46
2022/06/21 03:58:23;;;;;;;2.83;2.17;;;17.20;44.10;;;;;;5076045;28;20590;-45
2022/06/21 04:01:07;;;;;;;4.65;2.90;;;17.20;44.00;;;;;;5075631;28;20703;-45
2022/06/21 04:03:41;;;;;;;5.35;2.28;;;17.20;44.00;;;;;;5076163;28;20191;-46
2022/06/21 04:06:21;;;;;;;3.90;3.13;;;17.20;44.00;;;;;;5075744;28;20157;-45
2022/06/21 04:09:13;;;;;;;8.15;3.03;;;17.20;43.90;;;;;;5075914;28;20538;-45
2022/06/21 04:12:09;;;;;;;6.53;3.83;;;17.10;43.70;;;;;;5056226;28;20200;-46
2022/06/21 04:14:49;;;;;;;2.90;2.50;;;17.10;43.80;;;;;;5072319;28;20637;-46
2022/06/21 04:17:36;;;;;;;6.00;2.30;;;17.20;43.80;;;;;;5075631;28;20236;-45
2022/06/21 04:20:28;;;;;;;3.65;2.75;;;17.20;43.70;;;;;;5075542;28;20216;-46
2022/06/21 04:23:08;;;;;;;4.07;2.55;;;17.30;43.60;;;;;;5075314;28;20200;-45
2022/06/21 04:25:38;;;;;;;3.88;2.75;;;17.40;43.70;;;;;;5075502;28;20193;-46
2022/06/21 04:28:21;;;;;;;2.90;2.35;;;17.40;43.50;;;;;;5075711;28;20179;-45
2022/06/21 04:30:50;;;;;;;6.47;3.28;;;17.50;43.50;;;;;;5074195;28;20279;-46
2022/06/21 04:33:48;;;;;;;4.65;2.83;;;17.60;43.40;;;;;;5075284;28;20184;-45
2022/06/21 04:36:34;;;;;;;2.60;1.95;;;17.70;43.50;;;;;;5074849;28;20183;-45
2022/06/21 04:39:08;;;;;;;2.72;2.10;;;17.70;43.30;;;;;;5075725;28;20211;-45
2022/06/21 04:41:51;;;;;;;10.02;2.33;;;17.80;43.20;;;;;;5075296;28;20716;-45
2022/06/21 04:44:41;;;;;;;5.43;2.75;;;17.90;43.20;;;;;;5075621;28;20211;-45
2022/06/21 04:47:26;;;;;;;2.45;1.95;;;18.00;43.00;;;;;;5075211;28;20216;-45
2022/06/21 04:50:14;;;;;;;3.40;2.17;;;18.00;42.80;;;;;;5075158;28;20194;-46
2022/06/21 04:52:57;;;;;;;3.58;2.65;;;18.00;42.80;;;;;;5075179;28;20191;-46
2022/06/21 04:55:32;;;;;;;4.35;2.95;;;18.10;43.00;;;;;;5074735;28;20206;-46
2022/06/21 04:57:58;;;;;;;2.78;1.80;;;18.20;43.20;;;;;;5074365;28;20196;-45
2022/06/21 05:00:24;;;;;;;5.67;2.40;;;18.10;42.70;;;;;;5074895;28;20275;-46
2022/06/21 05:02:57;;;;;;;7.70;2.40;;;18.20;43.00;;;;;;5075206;28;20168;-45
2022/06/21 05:05:27;;;;;;;2.80;2.00;;;18.20;43.50;;;;;;5075164;28;20172;-45
2022/06/21 05:08:12;;;;;;;3.38;2.15;;;18.30;42.60;;;;;;5074820;28;20603;-46
2022/06/21 05:10:44;;;;;;;4.25;2.50;;;18.30;42.60;;;;;;5074641;28;20219;-46
2022/06/21 05:13:35;;;;;;;2.85;2.22;;;18.40;42.90;;;;;;5074792;28;20160;-46
2022/06/21 05:16:33;;;;;;;4.03;2.20;;;18.50;43.00;;;;;;5074567;28;20188;-45
2022/06/21 05:19:22;;;;;;;3.75;1.80;;;18.50;42.80;;;;;;5065472;28;20186;-46
2022/06/21 05:22:27;;;;;;;3.50;2.97;;;18.50;42.60;;;;;;5074360;28;20209;-45
2022/06/21 05:24:55;;;;;;;7.03;3.35;;;18.60;42.60;;;;;;5073588;28;20186;-45
2022/06/21 05:27:33;;;;;;;3.30;2.80;;;18.70;43.40;;;;;;5074202;28;20181;-45
2022/06/21 05:30:05;;;;;;;6.85;2.58;;;18.80;42.50;;;;;;5074338;28;20206;-45
2022/06/21 05:32:40;;;;;;;7.10;2.25;;;18.80;42.20;;;;;;5074807;28;20196;-45
2022/06/21 05:35:20;;;;;;;5.70;2.85;;;18.80;42.20;;;;;;5074262;28;20187;-46
2022/06/21 05:38:02;;;;;;;7.28;2.25;;;18.80;42.10;;;;;;5074117;28;20192;-46
2022/06/21 05:40:47;;;;;;;4.80;3.05;;;18.90;42.30;;;;;;5074468;28;20181;-46
2022/06/21 05:43:19;;;;;;;2.80;1.63;;;19.00;42.10;;;;;;5074508;28;20301;-46
2022/06/21 05:46:00;;;;;;;7.15;2.60;;;19.00;42.10;;;;;;5074078;28;20648;-45
2022/06/21 05:48:30;;;;;;;5.90;2.55;;;19.10;42.20;;;;;;5074194;28;20165;-45
2022/06/21 05:50:58;;;;;;;4.65;2.75;;;19.10;42.30;;;;;;5074137;28;20189;-45
2022/06/21 05:53:27;;;;;;;4.72;2.97;;;19.20;42.20;;;;;;5073841;28;20177;-45
2022/06/21 05:55:53;;;;;;;4.35;2.10;;;19.30;42.80;;;;;;5074107;28;20195;-46
2022/06/21 05:58:29;;;;;;;7.93;2.55;;;19.40;42.10;;;;;;5074166;28;20200;-46
2022/06/21 06:01:05;;;;;;;7.05;2.38;;;19.40;42.00;;;;;;5074122;28;20188;-45
2022/06/21 06:03:45;;;;;;;2.25;1.67;;;19.40;41.80;;;;;;5073973;28;20168;-45
2022/06/21 06:06:20;;;;;;;7.60;3.00;;;19.40;41.60;;;;;;5074015;28;20513;-45
2022/06/21 06:08:57;;;;;;;9.68;3.45;;;19.40;41.60;;;;;;5073854;28;20176;-46
2022/06/21 06:11:57;;;;;;;4.10;3.13;;;19.30;41.60;;;;;;5073738;28;20727;-46
2022/06/21 06:14:17;;;;;;;4.57;2.38;;;19.30;41.40;;;;;;5073456;28;20184;-46
2022/06/21 06:16:46;;;;;;;4.50;3.40;;;19.20;41.30;;;;;;5073264;28;20239;-46
2022/06/21 06:19:19;;;;;;;4.70;2.40;;;19.30;41.80;;;;;;5073344;28;20633;-46
2022/06/21 06:22:09;;;;;;;6.43;2.53;;;19.20;41.50;;;;;;5073144;28;20235;-45
2022/06/21 06:24:46;;;;;;;3.92;2.75;;;19.30;41.90;;;;;;5073557;28;20168;-46
2022/06/21 06:27:38;;;;;;;3.83;2.20;;;19.30;41.90;;;;;;5073202;28;20267;-46
2022/06/21 06:30:06;;;;;;;4.38;2.60;;;19.30;42.00;;;;;;5073396;28;20253;-45
2022/06/21 06:32:42;;;;;;;4.65;2.70;;;19.30;41.50;;;;;;5073282;28;20176;-45
2022/06/21 06:35:16;;;;;;;4.90;2.65;;;19.40;42.00;;;;;;5073643;28;20156;-46
2022/06/21 06:37:43;;;;;;;4.53;2.50;;;19.40;41.60;;;;;;5073433;28;20180;-46
2022/06/21 06:40:26;;;;;;;4.57;2.85;;;19.40;41.50;;;;;;5073222;28;20691;-46
2022/06/21 06:43:04;;;;;;;6.97;2.50;;;19.40;41.20;;;;;;5073243;28;20177;-46
2022/06/21 06:45:34;;;;;;;3.35;2.78;;;19.40;42.20;;;;;;5073217;28;20263;-45
2022/06/21 06:48:03;;;;;;;5.05;2.50;;;19.50;41.30;;;;;;5073473;28;20243;-46
2022/06/21 06:50:34;;;;;;;2.42;2.20;;;19.60;41.10;;;;;;5073403;28;20192;-46
2022/06/21 06:53:02;;;;;;;3.80;2.50;;;19.80;41.80;;;;;;5073401;28;20267;-46
2022/06/21 06:55:46;;;;;;;3.67;2.60;;;20.00;41.40;;;;;;5073208;28;20168;-46
2022/06/21 06:58:18;;;;;;;4.18;2.78;;;20.20;40.50;;;;;;5073328;28;20196;-46
2022/06/21 07:00:50;;;;;;;4.43;2.35;;;20.30;40.60;;;;;;5072837;28;20243;-46
2022/06/21 07:03:23;;;;;;;2.60;2.10;;;20.40;39.50;;;;;;5072966;28;20171;-46
2022/06/21 07:06:04;;;;;;;2.78;2.10;;;20.40;39.20;;;;;;5072984;28;20522;-45
2022/06/21 07:08:49;;;;;;;3.55;2.58;;;20.60;39.40;;;;;;5073147;28;20241;-46
2022/06/21 07:11:23;;;;;;;3.55;2.33;;;20.70;39.60;;;;;;5072750;28;20262;-46
2022/06/21 07:13:50;;;;;;;3.30;2.58;;;20.80;39.60;;;;;;5072936;28;20207;-46
2022/06/21 07:16:22;;;;;;;2.40;1.80;;;21.00;39.30;;;;;;5072910;28;20238;-46
2022/06/21 07:18:51;;;;;;;8.90;2.40;;;21.10;38.90;;;;;;5072076;28;20193;-46
2022/06/21 07:21:18;;;;;;;5.35;3.15;;;21.10;39.10;;;;;;5072563;28;20243;-46
2022/06/21 07:23:45;;;;;;;3.47;1.80;;;21.20;38.70;;;;;;5072627;28;20176;-46
2022/06/21 07:26:19;;;;;;;3.13;2.30;;;21.30;38.60;;;;;;5072213;28;20517;-46
2022/06/21 07:28:56;;;;;;;6.95;2.22;;;21.50;38.80;;;;;;5072770;28;20243;-46
2022/06/21 07:31:37;;;;;;;3.20;1.80;;;21.60;38.00;;;;;;5072531;28;20582;-46
2022/06/21 07:34:25;;;;;;;2.53;1.83;;;21.70;38.40;;;;;;5072349;28;20203;-46
2022/06/21 07:36:58;;;;;;;3.55;1.98;;;21.90;38.00;;;;;;5072085;28;20189;-46
2022/06/21 07:39:33;;;;;;;2.40;2.10;;;22.00;37.40;;;;;;5072235;28;20575;-46
2022/06/21 07:42:06;;;;;;;6.80;2.33;;;22.10;36.90;;;;;;5072219;28;20905;-46
2022/06/21 07:44:41;;;;;;;4.13;1.75;;;22.20;37.20;;;;;;5072290;28;20259;-45
2022/06/21 07:47:37;;;;;;;6.00;2.73;;;22.30;37.10;;;;;;5071934;28;20222;-46
2022/06/21 07:50:21;;;;;;;2.37;2.17;;;22.20;37.00;;;;;;5069778;28;20521;-46
2022/06/21 07:53:06;;;;;;;5.33;2.33;;;22.30;36.00;;;;;;5072239;28;20410;-46
2022/06/21 07:55:38;;;;;;;3.73;1.83;;;22.20;36.00;;;;;;5072210;28;20395;-45
2022/06/21 07:58:30;;;;;;;3.33;1.60;;;22.20;36.60;;;;;;5072063;28;20942;-46
2022/06/21 08:06:42;;;;;;;5.10;2.37;;;22.60;35.30;;;;;;5072038;28;20433;-47
2022/06/21 08:09:16;;;;;;;2.70;1.67;;;22.50;35.20;;;;;;5071938;28;20818;-47
2022/06/21 08:11:44;;;;;;;2.57;2.30;;;22.50;35.70;;;;;;5071857;28;20437;-46
2022/06/21 08:14:12;;;;;;;2.70;1.77;;;22.50;36.50;;;;;;5072119;28;20440;-47
2022/06/21 08:17:14;;;;;;;3.23;1.80;;;22.70;36.40;;;;;;5071673;28;20451;-46
2022/06/21 08:19:45;;;;;;;3.00;1.50;;;22.80;35.90;;;;;;5051903;28;20415;-47
2022/06/21 08:22:33;;;;;;;4.17;2.03;;;22.90;35.50;;;;;;5071773;28;20387;-46
2022/06/21 08:25:17;;;;;;;3.10;1.87;;;23.10;34.50;;;;;;5072196;28;20490;-46
2022/06/21 08:27:57;;;;;;;2.10;1.50;;;23.30;35.10;;;;;;5071556;28;20399;-46
2022/06/21 08:30:56;;;;;;;3.60;2.07;;;23.30;33.90;;;;;;5072473;28;20770;-46
2022/06/21 08:33:25;;;;;;;2.50;1.63;;;23.20;34.50;;;;;;5075578;28;20403;-46
2022/06/21 08:36:25;;;;;;;2.20;1.40;;;23.10;34.70;;;;;;5075365;28;20430;-46
2022/06/21 08:39:17;;;;;;;3.60;2.10;;;23.10;34.80;;;;;;5066354;28;20484;-46
2022/06/21 08:42:16;;;;;;;4.53;2.20;;;23.30;34.70;;;;;;5075331;28;20425;-46
2022/06/21 08:47:54;;;;;;;3.53;1.77;;;23.20;33.80;;;;;;5074999;28;20374;-46
2022/06/21 08:50:36;;;;;;;3.10;1.73;;;23.10;33.80;;;;;;5075261;28;20929;-46
2022/06/21 08:53:07;;;;;;;3.33;1.80;;;23.20;33.80;;;;;;5075389;28;20386;-47
2022/06/21 08:55:54;;;;;;;4.50;2.17;;;23.30;34.40;;;;;;5075386;28;20402;-46
2022/06/21 08:58:33;;;;;;;3.47;2.17;;;23.50;34.50;;;;;;5075016;28;20427;-46
2022/06/21 09:01:12;;;;;;;3.43;2.37;;;23.50;33.20;;;;;;5075397;28;20423;-46
2022/06/21 09:04:00;;;;;;;4.00;2.60;;;23.60;33.20;;;;;;5075675;28;20414;-47
2022/06/21 09:06:32;;;;;;;1.90;1.37;;;23.60;33.20;;;;;;5075710;28;20418;-46
2022/06/21 09:09:01;;;;;;;4.47;1.70;;;23.80;32.50;;;;;;5075529;28;20867;-48
2022/06/21 09:11:48;;;;;;;4.13;2.00;;;23.90;32.20;;;;;;5074238;28;20526;-46
2022/06/21 09:14:42;;;;;;;4.23;1.97;;;24.00;33.00;;;;;;5075316;28;20402;-46
2022/06/21 09:17:23;;;;;;;4.90;1.63;;;23.90;31.80;;;;;;5074819;28;20455;-45
2022/06/21 09:20:25;;;;;;;3.47;1.70;;;24.00;33.30;;;;;;5075040;28;20446;-47
2022/06/21 09:22:54;;;;;;;3.30;1.83;;;24.10;32.50;;;;;;5075126;28;20402;-47
2022/06/21 09:25:31;;;;;;;2.90;1.80;;;24.20;32.00;;;;;;5075227;28;20399;-47
2022/06/21 09:28:25;;;;;;;6.30;2.03;;;24.20;32.30;;;;;;5074921;28;20394;-47
2022/06/21 09:31:07;;;;;;;4.10;2.57;;;24.20;32.20;;;;;;5074905;28;20965;-46
2022/06/21 09:33:36;;;;;;;5.90;2.27;;;24.30;31.90;;;;;;5075344;28;20390;-47
2022/06/21 09:36:04;;;;;;;1.83;1.53;;;24.30;32.70;;;;;;5074746;28;20398;-47
2022/06/21 09:38:52;;;;;;;2.20;1.77;;;24.20;31.80;;;;;;5074737;28;20459;-46
2022/06/21 09:41:28;;;;;;;2.17;1.50;;;24.10;32.20;;;;;;5074445;28;20422;-47
2022/06/21 09:44:08;;;;;;;2.77;2.23;;;24.20;32.70;;;;;;5074581;28;20415;-47
2022/06/21 09:46:46;;;;;;;2.30;1.67;;;24.30;31.40;;;;;;5074709;28;20415;-47
2022/06/21 09:49:29;;;;;;;5.03;2.27;;;24.50;31.80;;;;;;5074563;28;20419;-47
2022/06/21 09:52:18;;;;;;;3.70;2.47;;;24.60;30.60;;;;;;5074719;28;20411;-46
2022/06/21 09:54:54;;;;;;;2.50;1.70;;;24.40;30.80;;;;;;5074681;28;20902;-47
2022/06/21 09:57:41;;;;;;;3.73;2.40;;;24.40;31.00;;;;;;5074396;28;20511;-47
2022/06/21 10:00:25;;;;;;;2.47;1.83;;;24.50;31.90;;;;;;5074537;28;20419;-47
2022/06/21 10:03:03;;;;;;;3.63;2.20;;;24.70;31.90;;;;;;5074779;28;20384;-46
2022/06/21 10:05:32;;;;;;;3.00;1.90;;;25.00;31.40;;;;;;5074314;28;20870;-47
2022/06/21 10:08:26;;;;;;;2.80;1.83;;;25.20;31.80;;;;;;5073175;28;20411;-47
2022/06/21 10:11:07;;;;;;;3.00;2.10;;;25.40;31.30;;;;;;5074076;28;20945;-47
2022/06/21 10:13:49;;;;;;;4.30;1.90;;;25.40;30.00;;;;;;5074049;28;20430;-47
2022/06/21 10:16:42;;;;;;;3.70;1.37;;;25.20;30.00;;;;;;5073805;28;20757;-47
2022/06/21 10:19:31;;;;;;;1.80;1.30;;;25.20;29.90;;;;;;5074167;28;20410;-46
2022/06/21 10:21:57;;;;;;;2.67;1.73;;;25.30;30.30;;;;;;5074372;28;20802;-46
2022/06/21 10:24:55;;;;;;;9.40;1.90;;;25.30;29.40;;;;;;5074099;28;20411;-47
2022/06/21 10:27:24;;;;;;;1.97;1.33;;;25.30;29.60;;;;;;5064850;28;20196;-45
2022/06/21 10:30:04;;;;;;;3.73;1.40;;;25.20;29.40;;;;;;5073713;28;20513;-47
2022/06/21 10:32:49;;;;;;;3.23;2.20;;;25.20;29.60;;;;;;5073821;28;20393;-47
2022/06/21 10:35:18;;;;;;;2.77;1.43;;;25.30;28.20;;;;;;5074017;28;20398;-47
2022/06/21 10:38:04;;;;;;;2.70;1.57;;;25.40;29.60;;;;;;5073764;28;20894;-45
2022/06/21 10:41:02;;;;;;;2.33;1.53;;;25.60;28.90;;;;;;5073764;28;20419;-47
2022/06/21 10:43:40;;;;;;;2.27;1.40;;;25.80;29.20;;;;;;5073059;28;20419;-46
2022/06/21 10:46:11;;;;;;;2.00;1.63;;;25.90;29.00;;;;;;5073274;28;20470;-46
2022/06/21 10:48:52;;;;;;;3.30;1.90;;;26.00;29.00;;;;;;5073576;28;20396;-46
2022/06/21 10:51:34;;;;;;;2.87;1.80;;;26.00;28.70;;;;;;5073348;28;20460;-47
2022/06/21 10:54:33;;;;;;;3.27;1.73;;;26.20;29.20;;;;;;5072674;28;20387;-47
2022/06/21 10:57:15;;;;;;;3.00;1.87;;;26.40;29.10;;;;;;5073116;28;20451;-47
2022/06/21 11:02:59;;;;;;;2.80;2.00;;;26.30;28.10;;;;;;5073227;28;20394;-47
2022/06/21 11:05:39;;;;;;;2.00;1.53;;;26.20;28.10;;;;;;5073052;28;20406;-47
2022/06/21 11:08:34;;;;;;;3.07;1.87;;;26.30;27.90;;;;;;5073180;28;20417;-46
2022/06/21 11:11:21;;;;;;;1.83;1.33;;;26.40;28.00;;;;;;5073312;28;20522;-47
2022/06/21 11:14:24;;;;;;;2.20;1.50;;;26.50;28.80;;;;;;5073109;28;20426;-46
2022/06/21 11:17:04;;;;;;;2.70;1.60;;;26.70;27.90;;;;;;5072326;28;20445;-47
2022/06/21 11:19:48;;;;;;;5.33;1.50;;;26.80;26.40;;;;;;5072256;28;20399;-46
2022/06/21 11:22:29;;;;;;;2.83;1.50;;;26.90;26.20;;;;;;5072821;28;20403;-46
2022/06/21 11:24:57;;;;;;;4.33;1.90;;;26.70;25.80;;;;;;5072860;28;20403;-46
2022/06/21 11:27:44;;;;;;;2.63;1.80;;;26.80;26.90;;;;;;5072785;28;20497;-48
2022/06/21 11:30:13;;;;;;;3.60;2.33;;;26.80;26.80;;;;;;5073098;28;20561;-47
2022/06/21 11:33:04;;;;;;;2.43;1.07;;;26.80;25.00;;;;;;5073342;28;20430;-47
2022/06/21 11:35:49;;;;;;;2.43;1.93;;;26.80;26.20;;;;;;5072816;28;20411;-46
2022/06/21 11:38:35;;;;;;;2.63;1.50;;;26.90;25.60;;;;;;5072260;28;20465;-46
2022/06/21 11:44:59;;;;;;;2.10;1.63;;;27.10;26.60;;;;;;5073019;28;20425;-47
2022/06/21 11:47:44;;;;;;;3.40;1.63;;;27.30;26.30;;;;;;5072774;28;20402;-47
2022/06/21 11:50:20;;;;;;;3.23;1.80;;;27.30;24.90;;;;;;5072900;28;20422;-47
2022/06/21 11:52:49;;;;;;;3.57;1.47;;;27.30;25.60;;;;;;5072795;28;20926;-47
2022/06/21 11:55:17;;;;;;;1.90;1.23;;;27.40;26.20;;;;;;5073366;28;20414;-47
2022/06/21 11:58:22;;;;;;;2.00;1.30;;;27.60;26.90;;;;;;5072709;28;20454;-46
2022/06/21 12:00:58;;;;;;;4.37;1.63;;;27.80;26.60;;;;;;5072811;28;20426;-47
2022/06/21 12:03:49;;;;;;;2.30;1.30;;;28.00;25.40;;;;;;5073208;28;20449;-46
2022/06/21 12:06:29;;;;;;;2.30;1.37;;;28.10;26.40;;;;;;5074822;28;20399;-47
2022/06/21 12:09:15;;;;;;;2.20;1.30;;;28.00;24.70;;;;;;5076796;28;20804;-48
2022/06/21 12:12:05;;;;;;;1.90;1.30;;;28.10;25.60;;;;;;5076827;28;20422;-47
2022/06/21 12:14:56;;;;;;;2.30;1.40;;;28.20;25.80;;;;;;5076700;28;20806;-48
2022/06/21 12:17:54;;;;;;;1.87;1.40;;;28.20;25.30;;;;;;5076055;28;20457;-47
2022/06/21 12:20:46;;;;;;;2.40;1.50;;;28.40;25.10;;;;;;5076011;28;20442;-48
2022/06/21 12:23:12;;;;;;;1.83;1.17;;;28.50;24.80;;;;;;5076377;28;20375;-46
2022/06/21 12:25:38;;;;;;;2.00;1.30;;;28.50;24.90;;;;;;5075732;28;20429;-46
2022/06/21 12:28:26;;;;;;;2.10;1.40;;;28.60;24.40;;;;;;5075975;28;20260;-46
2022/06/21 12:30:53;;;;;;;2.43;1.47;;;28.70;24.80;;;;;;5075978;28;20426;-46
2022/06/21 12:33:23;;;;;;;1.93;1.30;;;28.90;26.10;;;;;;5075664;28;20410;-47
2022/06/21 12:36:13;;;;;;;2.53;1.60;;;29.00;25.30;;;;;;5075339;28;20891;-47
2022/06/21 12:38:55;;;;;;;1.97;1.20;;;29.10;24.10;;;;;;5075217;28;20790;-46
2022/06/21 12:41:22;;;;;;;2.77;1.77;;;29.10;24.10;;;;;;5075512;28;20504;-48
2022/06/21 12:44:06;;;;;;;3.83;1.90;;;29.00;23.30;;;;;;5075412;28;20402;-47
2022/06/21 12:46:53;;;;;;;2.10;1.33;;;28.80;23.20;;;;;;5075186;28;20409;-47
2022/06/21 12:49:53;;;;;;;2.30;1.57;;;28.90;24.10;;;;;;5075274;28;20452;-47
2022/06/21 12:52:34;;;;;;;2.70;1.30;;;28.90;24.30;;;;;;5075257;28;20399;-46
2022/06/21 12:55:14;;;;;;;3.70;1.30;;;29.10;25.00;;;;;;5075049;28;20815;-48
2022/06/21 12:57:40;;;;;;;1.77;1.20;;;29.20;24.30;;;;;;5074796;28;20446;-47
2022/06/21 13:00:07;;;;;;;3.20;1.67;;;29.30;24.20;;;;;;5074922;28;20965;-48
2022/06/21 13:03:18;;;;;;;2.37;1.23;;;29.30;23.60;;;;;;5075396;28;20180;-48
2022/06/21 13:06:00;;;;;;;2.50;1.57;;;29.30;23.30;;;;;;5058147;28;20414;-46
2022/06/21 13:08:29;;;;;;;2.23;1.47;;;29.30;22.70;;;;;;5074688;28;20391;-46
2022/06/21 13:11:33;;;;;;;2.47;1.10;;;29.30;24.10;;;;;;5074531;28;20513;-46
2022/06/21 13:14:31;;;;;;;2.57;1.27;;;29.40;23.90;;;;;;5074452;28;20390;-46
2022/06/21 13:17:25;;;;;;;3.30;1.13;;;29.40;22.70;;;;;;5073135;28;20443;-45
2022/06/21 13:20:09;;;;;;;2.40;1.33;;;29.50;23.80;;;;;;5074438;28;20494;-46
2022/06/21 13:22:49;;;;;;;2.23;1.50;;;29.60;23.40;;;;;;5074361;28;20879;-46
2022/06/21 13:25:25;;;;;;;5.23;1.93;;;29.80;23.70;;;;;;5074212;28;20384;-46
2022/06/21 13:27:53;;;;;;;3.80;1.53;;;29.70;21.70;;;;;;5074173;28;20407;-46
2022/06/21 13:30:47;;;;;;;1.70;1.20;;;29.70;22.90;;;;;;5074402;28;20418;-46
2022/06/21 13:33:34;;;;;;;2.67;1.73;;;29.90;22.00;;;;;;5074158;28;20391;-46
2022/06/21 13:36:32;;;;;;;2.80;2.23;;;29.80;21.30;;;;;;5073796;28;20403;-46
2022/06/21 13:39:01;;;;;;;1.97;1.23;;;29.80;22.20;;;;;;5073903;28;20408;-46
2022/06/21 13:44:29;;;;;;;2.30;1.67;;;29.90;21.50;;;;;;5073885;28;20466;-46
2022/06/21 13:47:23;;;;;;;1.90;1.20;;;29.80;21.90;;;;;;5073977;28;20394;-46
2022/06/21 13:50:00;;;;;;;1.60;0.90;;;29.90;22.00;;;;;;5073625;28;20415;-47
2022/06/21 13:52:39;;;;;;;2.43;1.10;;;29.90;20.40;;;;;;5074053;28;20421;-46
2022/06/21 13:55:17;;;;;;;2.10;1.10;;;29.90;19.50;;;;;;5073946;28;20494;-47
2022/06/21 13:58:06;;;;;;;1.60;1.00;;;29.60;20.70;;;;;;5073445;28;20433;-45
2022/06/21 14:00:45;;;;;;;2.53;1.33;;;29.50;19.60;;;;;;5073462;28;20453;-47
2022/06/21 14:03:45;;;;;;;2.77;1.27;;;29.40;21.40;;;;;;5073524;28;20905;-46
2022/06/21 14:06:26;;;;;;;5.07;1.23;;;29.50;21.50;;;;;;5051655;28;20457;-47